createdAt,value
2022-09-03T00:00:07.659Z,43.19
2022-09-03T00:05:08.440Z,43.21
2022-09-03T00:10:08.147Z,43.24
2022-09-03T00:15:08.112Z,43.26
2022-09-03T00:20:07.821Z,43.29
2022-09-03T00:25:08.514Z,43.31
2022-09-03T00:30:08.215Z,43.35
2022-09-03T00:35:08.520Z,43.35
2022-09-03T00:40:08.206Z,43.41
2022-09-03T00:45:07.873Z,43.42
2022-09-03T00:50:08.610Z,43.44
2022-09-03T00:55:08.299Z,43.44
2022-09-03T01:00:13.104Z,43.49
2022-09-03T01:05:07.795Z,43.5
2022-09-03T01:10:08.688Z,43.52
2022-09-03T01:15:08.393Z,43.53
2022-09-03T01:20:08.103Z,43.55
2022-09-03T01:25:16.692Z,43.57
2022-09-03T01:30:08.480Z,43.62
2022-09-03T01:35:08.251Z,43.62
2022-09-03T01:40:08.043Z,43.66
2022-09-03T01:45:07.760Z,43.68
2022-09-03T01:50:16.622Z,43.65
2022-09-03T01:55:08.344Z,43.69
2022-09-03T02:00:08.048Z,43.73
2022-09-03T02:05:07.754Z,43.75
2022-09-03T02:10:08.463Z,43.79
2022-09-03T02:15:08.523Z,43.81
2022-09-03T02:20:08.282Z,43.83
2022-09-03T02:25:07.984Z,43.84
2022-09-03T02:30:07.731Z,43.87
2022-09-03T02:35:08.433Z,43.88
2022-09-03T02:40:08.218Z,43.9
2022-09-03T02:45:08.026Z,43.94
2022-09-03T02:50:07.741Z,43.95
2022-09-03T02:55:08.463Z,43.97
2022-09-03T03:00:08.179Z,44.0
2022-09-03T03:05:07.930Z,44.02
2022-09-03T03:10:08.627Z,44.05
2022-09-03T03:15:08.344Z,44.06
2022-09-03T03:20:08.033Z,44.05
2022-09-03T03:25:07.746Z,44.08
2022-09-03T03:30:08.483Z,44.08
2022-09-03T03:35:08.210Z,44.12
2022-09-03T03:40:07.942Z,44.13
2022-09-03T03:45:07.658Z,44.13
2022-09-03T03:50:08.334Z,44.17
2022-09-03T03:55:08.046Z,44.18
2022-09-03T04:00:07.742Z,44.21
2022-09-03T04:05:02.875Z,44.23
2022-09-03T04:10:02.834Z,44.25
2022-09-03T04:15:02.794Z,44.27
2022-09-03T04:20:02.602Z,44.31
2022-09-03T04:25:02.434Z,44.3
2022-09-03T04:30:02.740Z,44.31
2022-09-03T04:35:02.373Z,44.35
2022-09-03T04:40:02.353Z,44.38
2022-09-03T04:45:02.275Z,44.41
2022-09-03T04:50:02.130Z,44.42
2022-09-03T04:55:02.044Z,44.43
2022-09-03T05:00:01.951Z,44.45
2022-09-03T05:05:01.739Z,44.45
2022-09-03T05:10:02.575Z,44.48
2022-09-03T05:15:02.420Z,44.5
2022-09-03T05:20:02.278Z,44.53
2022-09-03T05:25:02.252Z,44.53
2022-09-03T05:30:01.954Z,44.56
2022-09-03T05:35:01.867Z,44.56
2022-09-03T05:40:02.744Z,44.61
2022-09-03T05:45:02.678Z,44.6
2022-09-03T05:50:02.426Z,44.63
2022-09-03T05:55:02.232Z,44.63
2022-09-03T06:00:02.107Z,44.64
2022-09-03T06:05:01.939Z,44.64
2022-09-03T06:10:02.692Z,44.69
2022-09-03T06:15:02.528Z,44.69
2022-09-03T06:20:02.441Z,44.67
2022-09-03T06:25:02.278Z,44.66
2022-09-03T06:30:02.211Z,44.62
2022-09-03T06:35:02.146Z,44.59
2022-09-03T06:40:02.123Z,44.59
2022-09-03T06:45:02.084Z,44.56
2022-09-03T06:50:01.973Z,44.53
2022-09-03T06:55:01.894Z,44.5
2022-09-03T07:00:02.792Z,44.45
2022-09-03T07:05:02.664Z,44.46
2022-09-03T07:10:02.588Z,44.4
2022-09-03T07:15:02.455Z,44.39
2022-09-03T07:20:01.928Z,44.34
2022-09-03T07:25:02.884Z,44.34
2022-09-03T07:30:02.807Z,44.26
2022-09-03T07:35:02.660Z,44.24
2022-09-03T07:40:02.585Z,44.21
2022-09-03T07:45:02.132Z,44.2
2022-09-03T07:50:01.873Z,44.12
2022-09-03T07:55:02.624Z,44.12
2022-09-03T08:00:02.501Z,44.02
2022-09-03T08:05:02.339Z,43.96
2022-09-03T08:10:02.134Z,43.89
2022-09-03T08:15:02.262Z,43.84
2022-09-03T08:20:01.978Z,43.76
2022-09-03T08:25:01.742Z,43.74
2022-09-03T08:30:02.500Z,43.66
2022-09-03T08:35:02.527Z,43.61
2022-09-03T08:40:02.859Z,43.53
2022-09-03T08:45:02.713Z,43.5
2022-09-03T08:50:02.553Z,43.43
2022-09-03T08:55:02.349Z,43.35
2022-09-03T09:00:02.224Z,43.28
2022-09-03T09:05:02.197Z,43.25
2022-09-03T09:10:01.840Z,43.16
2022-09-03T09:15:02.747Z,43.12
2022-09-03T09:20:02.618Z,43.05
2022-09-03T09:25:02.470Z,43.03
2022-09-03T09:30:02.440Z,42.94
2022-09-03T09:35:02.456Z,42.86
2022-09-03T09:40:02.433Z,42.79
2022-09-03T09:45:02.299Z,42.74
2022-09-03T09:50:02.212Z,42.7
2022-09-03T09:55:02.126Z,42.64
2022-09-03T10:00:02.055Z,42.59
2022-09-03T10:05:01.837Z,42.53
2022-09-03T10:10:02.707Z,42.45
2022-09-03T10:15:02.645Z,42.39
2022-09-03T10:20:02.458Z,42.32
2022-09-03T10:25:02.340Z,42.25
2022-09-03T10:30:02.268Z,42.17
2022-09-03T10:35:01.949Z,42.11
2022-09-03T10:40:01.888Z,42.05
2022-09-03T10:45:02.747Z,42.02
2022-09-03T10:50:02.605Z,41.97
2022-09-03T10:55:02.528Z,41.91
2022-09-03T11:00:02.298Z,41.86
2022-09-03T11:05:02.128Z,41.82
2022-09-03T11:10:01.911Z,41.75
2022-09-03T11:15:04.346Z,41.74
2022-09-03T11:20:02.175Z,41.64
2022-09-03T11:25:01.921Z,41.58
2022-09-03T11:30:01.808Z,41.55
2022-09-03T11:35:02.649Z,41.52
2022-09-03T11:40:02.480Z,41.43
2022-09-03T11:45:02.482Z,41.37
2022-09-03T11:50:02.402Z,41.31
2022-09-03T11:55:02.356Z,41.21
2022-09-03T12:00:02.632Z,41.12
2022-09-03T12:05:02.588Z,41.03
2022-09-03T12:10:02.564Z,40.97
2022-09-03T12:15:02.479Z,40.86
2022-09-03T12:20:03.232Z,40.74
2022-09-03T12:25:06.721Z,40.6
2022-09-03T12:30:02.703Z,40.55
2022-09-03T12:35:02.485Z,40.49
2022-09-03T12:40:07.755Z,40.43
2022-09-03T12:45:09.475Z,40.36
2022-09-03T12:50:02.634Z,40.34
2022-09-03T12:55:02.445Z,40.26
2022-09-03T13:00:02.379Z,40.21
2022-09-03T13:05:02.237Z,40.13
2022-09-03T13:10:02.058Z,40.1
2022-09-03T13:15:01.929Z,40.05
2022-09-03T13:20:02.732Z,40.03
2022-09-03T13:25:11.831Z,40.01
2022-09-03T13:30:02.750Z,39.98
2022-09-03T13:35:02.682Z,39.97
2022-09-03T13:40:02.431Z,39.88
2022-09-03T13:45:02.230Z,39.84
2022-09-03T13:50:07.375Z,39.87
2022-09-03T13:55:02.199Z,39.88
2022-09-03T14:00:02.154Z,39.84
2022-09-03T14:05:01.909Z,39.83
2022-09-03T14:10:02.715Z,39.81
2022-09-03T14:15:02.534Z,39.74
2022-09-03T14:20:02.376Z,39.74
2022-09-03T14:25:02.298Z,39.64
2022-09-03T14:30:02.229Z,39.67
2022-09-03T14:35:12.143Z,39.67
2022-09-03T14:40:02.417Z,39.66
2022-09-03T14:45:02.412Z,39.63
2022-09-03T14:50:02.342Z,39.64
2022-09-03T14:55:02.180Z,39.64
2022-09-03T15:00:10.384Z,39.66
2022-09-03T15:05:02.477Z,39.67
2022-09-03T15:10:02.584Z,39.67
2022-09-03T15:15:02.462Z,39.69
2022-09-03T15:20:02.432Z,39.71
2022-09-03T15:25:02.231Z,39.75
2022-09-03T15:30:02.254Z,39.76
2022-09-03T15:35:02.091Z,39.79
2022-09-03T15:40:02.040Z,39.83
2022-09-03T15:45:12.117Z,39.85
2022-09-03T15:50:02.027Z,39.85
2022-09-03T15:55:01.832Z,39.96
2022-09-03T16:00:02.720Z,39.93
2022-09-03T16:05:02.542Z,39.98
2022-09-03T16:10:23.316Z,40.04
2022-09-03T16:15:02.384Z,40.05
2022-09-03T16:20:02.085Z,40.1
2022-09-03T16:25:01.812Z,40.09
2022-09-03T16:30:02.798Z,40.1
2022-09-03T16:35:02.734Z,40.16
2022-09-03T16:40:02.633Z,40.19
2022-09-03T16:45:02.406Z,40.24
2022-09-03T16:50:02.315Z,40.23
2022-09-03T16:55:02.074Z,40.28
2022-09-03T17:00:02.118Z,40.29
2022-09-03T17:05:01.923Z,40.35
2022-09-03T17:10:02.822Z,40.37
2022-09-03T17:15:07.726Z,40.44
2022-09-03T17:20:02.686Z,40.42
2022-09-03T17:25:02.617Z,40.47
2022-09-03T17:30:02.534Z,40.49
2022-09-03T17:35:02.450Z,40.51
2022-09-03T17:40:02.498Z,40.54
2022-09-03T17:45:02.424Z,40.58
2022-09-03T17:50:02.253Z,40.64
2022-09-03T17:55:02.120Z,40.68
2022-09-03T18:00:02.038Z,40.72
2022-09-03T18:05:11.880Z,40.8
2022-09-03T18:10:02.737Z,40.85
2022-09-03T18:15:02.593Z,40.89
2022-09-03T18:20:02.373Z,40.96
2022-09-03T18:25:02.325Z,41.03
2022-09-03T18:30:02.127Z,41.09
2022-09-03T18:35:01.954Z,41.19
2022-09-03T18:40:01.889Z,41.26
2022-09-03T18:45:20.744Z,41.35
2022-09-03T18:50:02.078Z,41.4
2022-09-03T18:55:08.205Z,41.46
2022-09-03T19:00:12.590Z,41.52
2022-09-03T19:05:02.372Z,41.59
2022-09-03T19:10:01.828Z,41.65
2022-09-03T19:15:12.551Z,41.71
2022-09-03T19:20:02.409Z,41.79
2022-09-03T19:25:02.175Z,41.85
2022-09-03T19:30:02.194Z,41.86
2022-09-03T19:35:11.996Z,41.94
2022-09-03T19:40:01.813Z,42.02
2022-09-03T19:45:02.583Z,42.07
2022-09-03T19:50:02.531Z,42.12
2022-09-03T19:55:02.443Z,42.17
2022-09-03T20:00:02.322Z,42.21
2022-09-03T20:05:12.207Z,42.28
2022-09-03T20:10:02.146Z,42.31
2022-09-03T20:15:02.092Z,42.36
2022-09-03T20:20:02.056Z,42.4
2022-09-03T20:25:02.076Z,42.45
2022-09-03T20:30:01.934Z,42.5
2022-09-03T20:35:02.775Z,42.55
2022-09-03T20:40:02.757Z,42.56
2022-09-03T20:45:02.650Z,42.63
2022-09-03T20:50:02.454Z,42.67
2022-09-03T20:55:02.318Z,42.72
2022-09-03T21:00:09.106Z,42.77
2022-09-03T21:05:01.932Z,42.81
2022-09-03T21:10:01.897Z,42.84
2022-09-03T21:15:02.754Z,42.89
2022-09-03T21:20:06.442Z,42.93
2022-09-03T21:25:02.319Z,42.96
2022-09-03T21:30:02.306Z,43.02
2022-09-03T21:35:21.935Z,43.03
2022-09-03T21:40:08.690Z,43.06
2022-09-03T21:45:08.516Z,43.1
2022-09-03T21:50:10.918Z,43.13
2022-09-03T21:55:07.858Z,43.16
2022-09-03T22:00:08.551Z,43.17
2022-09-03T22:05:08.276Z,43.2
2022-09-03T22:10:07.971Z,43.22
2022-09-03T22:15:07.685Z,43.28
2022-09-03T22:20:08.365Z,43.32
2022-09-03T22:25:08.067Z,43.32
2022-09-03T22:30:07.765Z,43.34
2022-09-03T22:35:08.481Z,43.39
2022-09-03T22:40:08.218Z,43.42
2022-09-03T22:45:07.910Z,43.44
2022-09-03T22:50:08.620Z,43.48
2022-09-03T22:55:08.318Z,43.49
2022-09-03T23:01:00.223Z,43.53
2022-09-03T23:05:07.956Z,43.55
2022-09-03T23:10:08.299Z,43.58
2022-09-03T23:15:08.242Z,43.63
2022-09-03T23:25:08.602Z,43.67
2022-09-03T23:30:08.329Z,43.7
2022-09-03T23:35:08.044Z,43.75
2022-09-03T23:40:07.739Z,43.74
2022-09-03T23:45:08.579Z,43.78
2022-09-03T23:50:08.123Z,43.81
2022-09-03T23:55:07.838Z,43.84
